createdAt,value
2023-05-02T05:55:51.331Z,9.30
2023-05-02T05:58:19.645Z,9.30
2023-05-02T06:00:46.797Z,9.30
2023-05-02T06:03:14.167Z,9.30
2023-05-02T06:05:41.739Z,9.40
2023-05-02T06:08:09.423Z,9.40
2023-05-02T06:10:36.565Z,9.40
2023-05-02T06:13:04.450Z,9.50
2023-05-02T06:15:37.614Z,9.50
2023-05-02T06:18:06.111Z,9.50
2023-05-02T06:20:33.314Z,9.60
2023-05-02T06:23:00.379Z,9.60
2023-05-02T06:25:27.532Z,9.70
2023-05-02T06:27:54.604Z,9.70
2023-05-02T06:30:21.686Z,9.80
2023-05-02T06:32:48.838Z,9.80
2023-05-02T06:35:16.119Z,9.80
2023-05-02T06:37:43.546Z,9.80
2023-05-02T06:40:11.141Z,9.80
2023-05-02T06:42:38.286Z,9.90
2023-05-02T06:45:06.986Z,9.90
2023-05-02T06:47:34.145Z,9.90
2023-05-02T06:50:01.722Z,10.00
2023-05-02T06:52:29.106Z,10.00
2023-05-02T06:54:56.391Z,10.00
2023-05-02T07:00:07.145Z,10.10
2023-05-02T07:05:42.069Z,10.20
2023-05-02T07:08:10.259Z,10.30
2023-05-02T07:10:37.389Z,10.30
2023-05-02T07:13:04.477Z,10.30
2023-05-02T07:18:17.794Z,10.40
2023-05-02T07:20:45.029Z,10.40
2023-05-02T07:23:14.579Z,10.40
2023-05-02T07:25:42.132Z,10.40
2023-05-02T07:28:09.199Z,10.40
2023-05-02T07:30:37.417Z,10.50
2023-05-02T07:33:04.574Z,10.50
2023-05-02T07:35:33.877Z,10.50
2023-05-02T07:38:01.072Z,10.60
2023-05-02T07:40:28.488Z,10.50
2023-05-02T07:42:55.723Z,10.60
2023-05-02T07:45:22.951Z,10.60
2023-05-02T07:47:50.103Z,10.60
2023-05-02T07:50:18.214Z,10.60
2023-05-02T07:52:45.271Z,10.70
2023-05-02T07:55:12.678Z,10.70
2023-05-02T07:57:44.425Z,10.70
2023-05-02T08:02:53.407Z,10.80
2023-05-02T08:05:20.653Z,10.90
2023-05-02T08:07:47.802Z,10.90
2023-05-02T08:10:14.875Z,11.00
2023-05-02T08:12:42.089Z,11.10
2023-05-02T08:15:11.982Z,11.10
2023-05-02T08:17:39.520Z,11.20
2023-05-02T08:20:07.318Z,11.20
2023-05-02T08:22:34.400Z,11.30
2023-05-02T08:25:01.569Z,11.30
2023-05-02T08:27:28.791Z,11.40
2023-05-02T08:29:57.400Z,11.50
2023-05-02T08:35:16.546Z,11.50
2023-05-02T08:37:45.690Z,11.60
2023-05-02T08:40:13.322Z,11.60
2023-05-02T08:42:41.415Z,11.60
2023-05-02T08:45:08.604Z,11.70
2023-05-02T08:47:36.003Z,11.80
2023-05-02T08:50:03.429Z,11.90
2023-05-02T08:52:30.862Z,11.90
2023-05-02T08:55:29.281Z,12.00
2023-05-02T08:57:57.635Z,12.00
2023-05-02T09:00:24.772Z,12.10
2023-05-02T09:03:04.340Z,12.10
2023-05-02T09:05:31.385Z,12.10
2023-05-02T09:07:58.625Z,12.20
2023-05-02T09:10:26.277Z,12.20
2023-05-02T09:12:53.403Z,12.20
2023-05-02T09:15:21.118Z,12.20
2023-05-02T09:17:48.609Z,12.20
2023-05-02T09:20:16.127Z,12.30
2023-05-02T09:22:50.642Z,12.20
2023-05-02T09:25:17.973Z,12.20
2023-05-02T09:27:52.261Z,12.30
2023-05-02T09:30:20.337Z,12.30
2023-05-02T09:32:51.024Z,12.30
2023-05-02T09:35:24.245Z,12.40
2023-05-02T09:38:00.494Z,12.40
2023-05-02T09:40:28.203Z,12.50
2023-05-02T09:42:55.607Z,12.50
2023-05-02T09:45:23.246Z,12.50
2023-05-02T09:47:51.067Z,12.60
2023-05-02T09:50:32.926Z,12.70
2023-05-02T09:55:44.488Z,12.80
2023-05-02T09:58:22.141Z,12.80
2023-05-02T10:00:50.061Z,12.80
2023-05-02T10:03:17.804Z,12.80
2023-05-02T10:05:45.731Z,12.70
2023-05-02T10:08:13.007Z,12.70
2023-05-02T10:10:41.632Z,12.80
2023-05-02T10:13:08.844Z,12.80
2023-05-02T10:15:37.158Z,12.80
2023-05-02T10:18:07.034Z,12.90
2023-05-02T10:20:35.113Z,12.90
2023-05-02T10:23:02.529Z,13.00
2023-05-02T10:25:29.804Z,13.00
2023-05-02T10:27:58.434Z,13.00
2023-05-02T10:30:25.893Z,13.00
2023-05-02T10:32:56.018Z,13.00
2023-05-02T10:35:23.249Z,13.10
2023-05-02T10:37:50.350Z,13.10
2023-05-02T10:40:17.935Z,13.10
2023-05-02T10:42:46.222Z,13.10
2023-05-02T10:45:14.854Z,13.20
2023-05-02T10:47:42.162Z,13.10
2023-05-02T10:50:09.479Z,13.10
2023-05-02T10:52:38.123Z,13.00
2023-05-02T10:55:18.048Z,12.90
2023-05-02T10:57:57.433Z,12.70
2023-05-02T11:00:29.432Z,12.60
2023-05-02T11:02:56.640Z,12.40
2023-05-02T11:05:24.509Z,12.20
2023-05-02T11:08:10.647Z,12.10
2023-05-02T11:10:37.797Z,12.10
2023-05-02T11:13:04.868Z,12.10
2023-05-02T11:15:33.328Z,12.10
2023-05-02T11:18:04.114Z,12.00
2023-05-02T11:20:31.807Z,12.00
2023-05-02T11:22:59.842Z,12.10
2023-05-02T11:29:48.384Z,12.10
2023-05-02T11:32:15.603Z,12.20
2023-05-02T11:34:43.025Z,12.20
2023-05-02T11:37:13.530Z,12.20
2023-05-02T11:39:40.903Z,12.20
2023-05-02T11:42:08.108Z,12.20
2023-05-02T11:44:36.874Z,12.30
2023-05-02T11:47:04.902Z,12.30
2023-05-02T11:49:31.996Z,12.40
2023-05-02T11:51:59.091Z,12.40
2023-05-02T11:54:26.686Z,12.40
2023-05-02T11:56:53.847Z,12.40
2023-05-02T11:59:21.042Z,12.50
2023-05-02T12:01:49.413Z,12.50
2023-05-02T12:04:19.286Z,12.50
2023-05-02T12:06:58.847Z,12.50
2023-05-02T12:09:55.851Z,12.50
2023-05-02T12:12:22.974Z,12.60
2023-05-02T12:14:50.248Z,12.50
2023-05-02T12:17:17.329Z,12.50
2023-05-02T12:19:52.725Z,12.50
2023-05-02T12:22:19.855Z,12.60
2023-05-02T12:24:47.110Z,12.60
2023-05-02T12:27:14.495Z,12.60
2023-05-02T12:29:44.641Z,12.60
2023-05-02T12:32:11.942Z,12.70
2023-05-02T12:34:45.308Z,12.70
2023-05-02T12:37:12.453Z,12.80
2023-05-02T12:39:40.102Z,12.80
2023-05-02T12:46:13.206Z,12.90
2023-05-02T12:48:46.770Z,12.90
2023-05-02T12:51:21.129Z,13.00
2023-05-02T12:53:48.287Z,13.00
2023-05-02T12:56:16.995Z,13.00
2023-05-02T12:58:44.685Z,13.10
2023-05-02T13:01:12.112Z,13.10
2023-05-02T13:03:39.265Z,13.10
2023-05-02T13:06:31.590Z,13.20
2023-05-02T13:08:59.313Z,13.30
2023-05-02T13:11:28.454Z,13.40
2023-05-02T13:13:56.444Z,13.50
2023-05-02T13:16:26.119Z,13.50
2023-05-02T13:18:53.332Z,13.40
2023-05-02T13:21:23.590Z,13.50
2023-05-02T13:23:51.821Z,13.50
2023-05-02T13:26:19.019Z,13.50
2023-05-02T13:28:46.060Z,13.50
2023-05-02T13:31:13.274Z,13.50
2023-05-02T13:33:40.311Z,13.50
2023-05-02T13:36:46.101Z,13.50
2023-05-02T13:39:13.939Z,13.50
2023-05-02T13:41:41.421Z,13.40
2023-05-02T13:44:09.310Z,13.40
2023-05-02T13:46:37.879Z,13.40
2023-05-02T13:49:05.264Z,13.30
2023-05-02T13:51:32.468Z,13.20
2023-05-02T13:54:01.653Z,13.10
2023-05-02T13:56:28.702Z,13.10
2023-05-02T13:58:56.056Z,13.00
2023-05-02T14:01:23.212Z,13.00
2023-05-02T14:03:50.527Z,12.90
2023-05-02T14:06:18.040Z,12.80
2023-05-02T14:08:45.363Z,12.80
2023-05-02T14:11:12.548Z,12.70
2023-05-02T14:13:39.652Z,12.50
2023-05-02T14:16:08.212Z,12.20
2023-05-02T14:18:35.885Z,12.00
2023-05-02T14:21:04.715Z,11.90
2023-05-02T14:23:32.056Z,11.70
2023-05-02T14:26:00.067Z,11.60
2023-05-02T14:28:27.882Z,11.40
2023-05-02T14:30:55.401Z,11.40
2023-05-02T14:33:22.620Z,11.30
2023-05-02T14:35:49.855Z,11.20
2023-05-02T14:38:17.174Z,11.20
2023-05-02T14:40:47.628Z,11.20
2023-05-02T14:43:14.722Z,11.10
2023-05-02T14:45:41.742Z,11.20
2023-05-02T14:48:09.489Z,11.20
2023-05-02T14:50:47.373Z,11.20
2023-05-02T14:53:39.742Z,11.10
2023-05-02T14:56:11.634Z,11.20
2023-05-02T14:58:39.768Z,11.20
2023-05-02T15:01:07.172Z,11.30
2023-05-02T15:03:35.449Z,11.40
2023-05-02T15:06:06.631Z,11.60
2023-05-02T15:08:37.281Z,11.70
2023-05-02T15:11:04.490Z,11.70
2023-05-02T15:13:32.639Z,11.80
2023-05-02T15:16:00.465Z,11.80
2023-05-02T15:18:27.662Z,11.90
2023-05-02T15:20:54.769Z,12.00
2023-05-02T15:23:22.481Z,12.00
2023-05-02T15:25:49.770Z,12.00
2023-05-02T15:28:16.905Z,12.00
2023-05-02T15:30:44.092Z,12.10
2023-05-02T15:33:11.289Z,12.20
2023-05-02T15:35:38.427Z,12.30
2023-05-02T15:38:06.514Z,12.30
2023-05-02T15:40:33.751Z,12.40
2023-05-02T15:43:01.790Z,12.50
2023-05-02T15:45:28.836Z,12.50
2023-05-02T15:47:57.995Z,12.50
2023-05-02T15:50:25.541Z,12.40
2023-05-02T15:52:53.053Z,12.30
2023-05-02T15:55:20.228Z,12.30
2023-05-02T15:57:47.322Z,12.20
2023-05-02T16:00:16.866Z,12.10
2023-05-02T16:02:45.160Z,12.10
2023-05-02T16:05:12.417Z,12.10
2023-05-02T16:07:39.550Z,12.10
2023-05-02T16:10:07.582Z,12.10
2023-05-02T16:12:34.768Z,12.10
2023-05-02T16:15:03.659Z,12.10
2023-05-02T16:17:31.204Z,12.00
2023-05-02T16:19:58.301Z,12.00
2023-05-02T16:22:28.154Z,12.00
2023-05-02T16:24:56.061Z,11.90
2023-05-02T16:27:24.360Z,11.90
2023-05-02T16:29:51.430Z,11.80
2023-05-02T16:32:18.450Z,11.80
2023-05-02T16:34:45.610Z,11.80
2023-05-02T16:37:13.633Z,11.80
2023-05-02T16:39:40.665Z,11.70
2023-05-02T16:42:07.746Z,11.70
2023-05-02T16:44:35.172Z,11.60
2023-05-02T16:47:02.390Z,11.50
2023-05-02T16:49:29.654Z,11.50
2023-05-02T16:51:56.784Z,11.50
2023-05-02T16:54:23.882Z,11.40
2023-05-02T16:56:51.367Z,11.40
2023-05-02T16:59:19.616Z,11.30
2023-05-02T17:01:46.765Z,11.30
2023-05-02T17:04:13.823Z,11.30
2023-05-02T17:06:40.890Z,11.20
2023-05-02T17:09:08.008Z,11.20
2023-05-02T17:11:35.142Z,11.20
2023-05-02T17:14:02.471Z,11.20
2023-05-02T17:16:29.726Z,11.20
2023-05-02T17:18:56.860Z,11.10
2023-05-02T17:21:23.917Z,11.10
2023-05-02T17:23:50.970Z,11.00
2023-05-02T17:26:18.371Z,11.00
2023-05-02T17:28:45.915Z,10.90
2023-05-02T17:31:13.438Z,10.90
2023-05-02T17:33:42.299Z,10.80
2023-05-02T17:36:09.553Z,10.70
2023-05-02T17:38:37.694Z,10.60
2023-05-02T17:41:05.758Z,10.50
2023-05-02T17:43:32.829Z,10.40
2023-05-02T17:45:59.959Z,10.40
2023-05-02T17:48:28.961Z,10.30
2023-05-02T17:50:56.796Z,10.20
2023-05-02T17:53:24.316Z,10.10
2023-05-02T17:55:51.425Z,10.10
2023-05-02T17:58:20.489Z,10.10
2023-05-02T18:00:47.580Z,10.20
2023-05-02T18:03:18.414Z,10.20
2023-05-02T18:05:47.381Z,10.30
2023-05-02T18:08:16.604Z,10.30
2023-05-02T18:10:44.258Z,10.30
2023-05-02T18:13:11.412Z,10.30
2023-05-02T18:15:38.567Z,10.30
2023-05-02T18:18:09.610Z,10.30
2023-05-02T18:20:40.727Z,10.20
2023-05-02T18:23:07.971Z,10.20
2023-05-02T18:25:35.753Z,10.30
2023-05-02T18:28:02.884Z,10.30
2023-05-02T18:30:29.933Z,10.30
2023-05-02T18:32:56.999Z,10.30
2023-05-02T18:35:24.209Z,10.30
2023-05-02T18:37:51.695Z,10.30
2023-05-02T18:40:18.763Z,10.30
2023-05-02T18:42:45.840Z,10.30
2023-05-02T18:45:12.901Z,10.30
2023-05-02T18:47:40.089Z,10.20
2023-05-02T18:50:08.602Z,10.20
2023-05-02T18:52:36.720Z,10.20
2023-05-02T18:55:04.972Z,10.20
2023-05-02T18:57:33.725Z,10.10
2023-05-02T19:00:01.274Z,10.10
2023-05-02T19:02:28.428Z,10.10
2023-05-02T19:04:55.674Z,10.10
2023-05-02T19:07:23.848Z,10.10
2023-05-02T19:09:52.248Z,10.10
2023-05-02T19:12:19.350Z,10.10
2023-05-02T19:14:47.978Z,10.10
2023-05-02T19:17:15.036Z,10.10
2023-05-02T19:19:42.191Z,10.10
2023-05-02T19:22:09.236Z,10.10
2023-05-02T19:24:36.340Z,10.00
2023-05-02T19:27:06.391Z,10.00
2023-05-02T19:29:33.894Z,9.90
2023-05-02T19:32:01.140Z,9.90
2023-05-02T19:34:28.360Z,9.90
2023-05-02T19:36:55.506Z,9.90
2023-05-02T19:39:22.585Z,9.80
2023-05-02T19:41:50.027Z,9.80
2023-05-02T19:44:18.047Z,9.80
2023-05-02T19:46:45.243Z,9.70
2023-05-02T19:49:12.411Z,9.70
2023-05-02T19:51:39.534Z,9.70
2023-05-02T19:54:08.642Z,9.70
2023-05-02T19:56:35.698Z,9.70
2023-05-02T19:59:02.738Z,9.60
2023-05-02T20:01:31.206Z,9.60
2023-05-02T20:03:58.580Z,9.60
2023-05-02T20:06:26.207Z,9.50
2023-05-02T20:08:53.513Z,9.50
2023-05-02T20:11:21.384Z,9.50
2023-05-02T20:13:50.508Z,9.50
2023-05-02T20:16:17.579Z,9.40
2023-05-02T20:18:44.726Z,9.40
2023-05-02T20:21:11.768Z,9.40
2023-05-02T20:23:40.263Z,9.30
2023-05-02T20:26:10.580Z,9.30
2023-05-02T20:28:37.826Z,9.30
2023-05-02T20:31:04.944Z,9.30
2023-05-02T20:33:43.687Z,9.30
2023-05-02T20:36:13.196Z,9.20
2023-05-02T20:38:42.367Z,9.20
2023-05-02T20:41:13.141Z,9.20
2023-05-02T20:43:41.420Z,9.10
2023-05-02T20:46:09.183Z,9.10
2023-05-02T20:48:36.314Z,9.00
2023-05-02T20:51:03.572Z,9.00
2023-05-02T20:53:32.630Z,9.00
2023-05-02T20:56:01.555Z,9.00
2023-05-02T20:58:28.720Z,9.00
2023-05-02T21:00:55.816Z,9.00
2023-05-02T21:03:23.082Z,8.90
2023-05-02T21:05:53.689Z,8.90
2023-05-02T21:08:20.868Z,8.90
2023-05-02T21:10:47.938Z,8.90
2023-05-02T21:13:15.019Z,8.80
2023-05-02T21:15:42.204Z,8.80
2023-05-02T21:18:10.441Z,8.80
2023-05-02T21:20:39.595Z,8.80
2023-05-02T21:23:07.163Z,8.70
2023-05-02T21:25:34.252Z,8.70
2023-05-02T21:28:01.310Z,8.70
2023-05-02T21:30:28.491Z,8.70
2023-05-02T21:32:55.603Z,8.70
2023-05-02T21:35:22.694Z,8.60
2023-05-02T21:37:49.795Z,8.60
2023-05-02T21:40:16.900Z,8.60
2023-05-02T21:42:44.009Z,8.60
2023-05-02T21:45:11.283Z,8.60
2023-05-02T21:47:38.371Z,8.50
2023-05-02T21:50:05.968Z,8.60
2023-05-02T21:52:33.280Z,8.60
2023-05-02T21:55:01.122Z,8.50
2023-05-02T21:57:28.623Z,8.50
2023-05-02T21:59:55.709Z,8.40
2023-05-02T22:02:23.605Z,8.40
2023-05-02T22:04:50.935Z,8.40
2023-05-02T22:07:18.094Z,8.40
2023-05-02T22:09:45.200Z,8.40
2023-05-02T22:12:12.335Z,8.40
2023-05-02T22:14:45.365Z,8.30
2023-05-02T22:17:13.385Z,8.30
2023-05-02T22:19:41.423Z,8.30
2023-05-02T22:22:08.528Z,8.30
2023-05-02T22:24:35.734Z,8.20
2023-05-02T22:27:02.824Z,8.20
2023-05-02T22:29:29.898Z,8.20
2023-05-02T22:31:57.171Z,8.20
2023-05-02T22:34:24.408Z,8.10
2023-05-02T22:36:51.709Z,8.10
2023-05-02T22:39:19.020Z,8.10
2023-05-02T22:41:46.211Z,8.10
2023-05-02T22:44:13.444Z,8.10
2023-05-02T22:46:40.559Z,8.10
2023-05-02T22:49:09.503Z,8.00
2023-05-02T22:51:37.006Z,8.00
2023-05-02T22:54:05.919Z,8.00
2023-05-02T22:56:33.015Z,8.00
2023-05-02T22:59:00.107Z,7.90
2023-05-02T23:01:27.604Z,7.90
2023-05-02T23:03:54.899Z,7.90
2023-05-02T23:06:22.257Z,7.90
2023-05-02T23:08:49.487Z,7.90
2023-05-02T23:11:16.737Z,7.90
2023-05-02T23:13:43.930Z,7.90
2023-05-02T23:16:11.116Z,7.80
2023-05-02T23:18:38.270Z,7.80
2023-05-02T23:21:05.380Z,7.80
2023-05-02T23:23:32.565Z,7.80
2023-05-02T23:25:59.628Z,7.80
2023-05-02T23:28:26.822Z,7.80
2023-05-02T23:30:54.012Z,7.70
2023-05-02T23:33:21.200Z,7.70
2023-05-02T23:35:48.453Z,7.70
2023-05-02T23:38:15.554Z,7.70
2023-05-02T23:40:42.758Z,7.60
2023-05-02T23:43:10.204Z,7.60
2023-05-02T23:45:41.818Z,7.60
2023-05-02T23:48:09.135Z,7.60
2023-05-02T23:50:36.497Z,7.50
2023-05-02T23:53:07.560Z,7.50
2023-05-02T23:55:34.761Z,7.50
2023-05-02T23:58:01.892Z,7.60
